Time;durP1;ratioP1;P1;durP2;ratioP2;P2;SDS_P1;SDS_P2;PMS_P1;PMS_P2;Temp;Humidity;BMP_temperature;BMP_pressure;BME280_temperature;BME280_humidity;BME280_pressure;Samples;Min_cycle;Max_cycle;Signal;HPM_P1;HPM_P2
2023/08/25 00:01:18;;;;;;;;;;;;;;;20.18;100.00;99606.63;5012574;28;1987;-57
2023/08/25 00:03:44;;;;;;;;;;;;;;;20.10;100.00;99611.03;5012624;28;939;-57
2023/08/25 00:06:11;;;;;;;;;;;;;;;20.03;100.00;99611.38;5012686;28;828;-57
2023/08/25 00:08:38;;;;;;;;;;;;;;;19.93;100.00;99607.84;5012352;28;899;-57
2023/08/25 00:11:04;;;;;;;;;;;;;;;19.83;100.00;99615.47;5012504;28;827;-57
2023/08/25 00:13:35;;;;;;;;;;;;;;;19.78;100.00;99608.50;5012472;28;867;-57
2023/08/25 00:16:04;;;;;;;;;;;;;;;19.76;100.00;99615.81;5012625;28;848;-58
2023/08/25 00:18:32;;;;;;;;;;;;;;;19.73;100.00;99606.31;5012634;28;907;-58
2023/08/25 00:20:59;;;;;;;;;;;;;;;19.71;100.00;99600.38;5012306;28;1890;-57
2023/08/25 00:23:25;;;;;;;;;;;;;;;19.71;100.00;99603.19;5012400;28;829;-58
2023/08/25 00:25:53;;;;;;;;;;;;;;;19.71;100.00;99599.63;4994753;28;825;-58
2023/08/25 00:28:20;;;;;;;;;;;;;;;19.71;100.00;99602.41;5012211;28;872;-58
2023/08/25 00:30:48;;;;;;;;;;;;;;;19.74;100.00;99593.84;5012165;28;962;-58
2023/08/25 00:33:14;;;;;;;;;;;;;;;19.83;100.00;99598.66;5012147;28;868;-58
2023/08/25 00:35:42;;;;;;;;;;;;;;;19.93;100.00;99596.63;5012194;28;816;-58
2023/08/25 00:38:09;;;;;;;;;;;;;;;20.01;100.00;99595.00;5012206;28;833;-57
2023/08/25 00:40:36;;;;;;;;;;;;;;;20.10;100.00;99595.00;5012033;28;1950;-58
2023/08/25 00:43:03;;;;;;;;;;;;;;;20.23;100.00;99589.19;5012224;28;976;-58
2023/08/25 00:45:32;;;;;;;;;;;;;;;20.29;100.00;99584.47;5011851;28;1170;-58
2023/08/25 00:47:59;;;;;;;;;;;;;;;20.19;100.00;99583.72;5011990;28;872;-58
2023/08/25 00:50:29;;;;;;;;;;;;;;;20.09;100.00;99590.63;5012020;28;820;-58
2023/08/25 00:52:57;;;;;;;;;;;;;;;20.01;100.00;99585.81;5010701;28;1177;-58
2023/08/25 00:55:24;;;;;;;;;;;;;;;19.91;100.00;99590.69;5012108;28;820;-58
2023/08/25 00:57:51;;;;;;;;;;;;;;;19.88;100.00;99597.25;5012002;28;1327;-58
2023/08/25 01:00:18;;;;;;;;;;;;;;;19.86;100.00;99585.72;5012171;28;1906;-58
2023/08/25 01:02:45;;;;;;;;;;;;;;;19.86;100.00;99580.09;5011865;28;1227;-58
2023/08/25 01:05:12;;;;;;;;;;;;;;;19.89;100.00;99596.78;5011856;28;853;-58
2023/08/25 01:07:39;;;;;;;;;;;;;;;19.99;100.00;99600.31;5011916;28;1271;-58
2023/08/25 01:10:06;;;;;;;;;;;;;;;20.02;100.00;99599.38;5011756;28;860;-58
2023/08/25 01:12:41;;;;;;;;;;;;;;;19.98;100.00;99598.78;5012238;28;1324;-58
2023/08/25 01:15:12;;;;;;;;;;;;;;;19.92;100.00;99601.44;5011807;28;832;-58
2023/08/25 01:17:42;;;;;;;;;;;;;;;19.90;100.00;99606.72;5010505;28;891;-58
2023/08/25 01:20:09;;;;;;;;;;;;;;;19.89;100.00;99596.78;5013099;28;1890;-58
2023/08/25 01:22:57;;;;;;;;;;;;;;;19.86;100.00;99606.13;5015561;28;884;-58
2023/08/25 01:25:25;;;;;;;;;;;;;;;19.77;100.00;99609.72;5015612;28;832;-58
2023/08/25 01:27:53;;;;;;;;;;;;;;;19.71;100.00;99611.59;5015690;28;866;-58
2023/08/25 01:30:22;;;;;;;;;;;;;;;19.69;100.00;99613.28;5015452;28;899;-58
2023/08/25 01:32:51;;;;;;;;;;;;;;;19.72;100.00;99601.19;5015429;28;888;-58
2023/08/25 01:35:19;;;;;;;;;;;;;;;19.74;100.00;99598.69;5015468;28;896;-58
2023/08/25 01:37:50;;;;;;;;;;;;;;;19.69;100.00;99610.50;5015563;28;868;-58
2023/08/25 01:40:28;;;;;;;;;;;;;;;19.64;100.00;99609.09;5015299;28;1890;-58
2023/08/25 01:42:55;;;;;;;;;;;;;;;19.62;100.00;99610.81;5015303;28;976;-58
2023/08/25 01:45:23;;;;;;;;;;;;;;;19.63;100.00;99610.38;5014916;28;1278;-58
2023/08/25 01:47:51;;;;;;;;;;;;;;;19.73;100.00;99606.31;5015192;28;835;-58
2023/08/25 01:50:19;;;;;;;;;;;;;;;19.78;100.00;99602.13;5015083;28;848;-58
2023/08/25 01:52:46;;;;;;;;;;;;;;;19.77;100.00;99604.13;5015073;28;899;-58
2023/08/25 01:55:12;;;;;;;;;;;;;;;19.75;100.00;99605.84;5015013;28;844;-58
2023/08/25 01:57:39;;;;;;;;;;;;;;;19.74;100.00;99604.28;5014819;28;904;-58
2023/08/25 02:00:06;;;;;;;;;;;;;;;19.69;100.00;99611.25;5015149;28;1938;-58
2023/08/25 02:02:33;;;;;;;;;;;;;;;19.59;100.00;99612.53;5014900;28;902;-58
2023/08/25 02:04:59;;;;;;;;;;;;;;;19.47;100.00;99610.69;5014836;28;836;-58
2023/08/25 02:07:26;;;;;;;;;;;;;;;19.36;100.00;99609.13;5014825;28;880;-58
2023/08/25 02:09:54;;;;;;;;;;;;;;;19.29;100.00;99601.03;5014913;28;941;-58
2023/08/25 02:12:21;;;;;;;;;;;;;;;19.24;100.00;99604.47;5014758;28;813;-58
2023/08/25 02:14:48;;;;;;;;;;;;;;;19.23;100.00;99602.91;5014647;28;859;-58
2023/08/25 02:17:15;;;;;;;;;;;;;;;19.22;100.00;99606.94;5014630;28;888;-58
2023/08/25 02:19:41;;;;;;;;;;;;;;;19.26;100.00;99607.56;5014608;28;879;-58
2023/08/25 02:22:07;;;;;;;;;;;;;;;19.21;100.00;99608.19;5014427;28;1886;-58
2023/08/25 02:24:35;;;;;;;;;;;;;;;19.14;100.00;99603.69;5014474;28;884;-58
2023/08/25 02:27:01;;;;;;;;;;;;;;;19.09;100.00;99609.13;5014323;28;845;-58
2023/08/25 02:29:28;;;;;;;;;;;;;;;19.02;100.00;99610.22;5014455;28;919;-58
2023/08/25 02:31:54;;;;;;;;;;;;;;;18.98;100.00;99612.38;5013542;28;967;-57
2023/08/25 02:34:22;;;;;;;;;;;;;;;18.93;100.00;99619.38;5014538;28;855;-57
2023/08/25 02:36:48;;;;;;;;;;;;;;;18.91;100.00;99612.69;5014180;28;821;-58
2023/08/25 02:39:14;;;;;;;;;;;;;;;18.88;100.00;99620.00;5014217;28;852;-58
2023/08/25 02:41:41;;;;;;;;;;;;;;;18.87;100.00;99621.25;5014075;28;1957;-57
2023/08/25 02:44:07;;;;;;;;;;;;;;;18.87;100.00;99623.28;5014080;28;1425;-58
2023/08/25 02:46:34;;;;;;;;;;;;;;;18.87;100.00;99631.66;5013988;28;849;-58
2023/08/25 02:49:00;;;;;;;;;;;;;;;18.85;100.00;99628.56;5014044;28;879;-57
2023/08/25 02:51:27;;;;;;;;;;;;;;;18.82;100.00;99627.47;5013999;28;908;-58
2023/08/25 02:53:54;;;;;;;;;;;;;;;18.83;100.00;99631.03;5013851;28;908;-57
2023/08/25 02:56:21;;;;;;;;;;;;;;;18.85;100.00;99629.31;5013935;28;828;-58
2023/08/25 02:58:48;;;;;;;;;;;;;;;18.89;100.00;99631.97;5013665;28;896;-57
2023/08/25 03:01:14;;;;;;;;;;;;;;;18.93;100.00;99636.19;5013962;28;1975;-58
2023/08/25 03:03:41;;;;;;;;;;;;;;;18.89;100.00;99638.34;5013690;28;1021;-58
2023/08/25 03:06:08;;;;;;;;;;;;;;;18.76;100.00;99634.88;5014045;28;860;-57
2023/08/25 03:08:35;;;;;;;;;;;;;;;18.70;100.00;99645.13;5013603;28;904;-58
2023/08/25 03:11:03;;;;;;;;;;;;;;;18.65;100.00;99634.53;5013535;28;880;-58
2023/08/25 03:13:30;;;;;;;;;;;;;;;18.63;100.00;99645.44;5013577;28;899;-58
2023/08/25 03:15:59;;;;;;;;;;;;;;;18.60;100.00;99635.91;5013475;28;879;-58
2023/08/25 03:18:26;;;;;;;;;;;;;;;18.56;100.00;99636.06;5013458;28;915;-58
2023/08/25 03:20:53;;;;;;;;;;;;;;;18.50;100.00;99640.72;5013297;28;1890;-58
2023/08/25 03:23:20;;;;;;;;;;;;;;;18.43;100.00;99635.38;5013408;28;854;-58
2023/08/25 03:25:47;;;;;;;;;;;;;;;18.46;100.00;99639.31;5013358;28;936;-58
2023/08/25 03:28:14;;;;;;;;;;;;;;;18.46;100.00;99640.06;5013414;28;947;-58
2023/08/25 03:30:40;;;;;;;;;;;;;;;18.50;100.00;99643.50;5013275;28;874;-58
2023/08/25 03:33:07;;;;;;;;;;;;;;;18.54;100.00;99644.16;5013273;28;939;-58
2023/08/25 03:35:36;;;;;;;;;;;;;;;18.61;100.00;99642.31;5013185;28;848;-58
2023/08/25 03:38:02;;;;;;;;;;;;;;;18.66;100.00;99633.28;5013058;28;844;-58
2023/08/25 03:40:29;;;;;;;;;;;;;;;18.72;100.00;99637.03;5013006;28;1886;-57
2023/08/25 03:42:56;;;;;;;;;;;;;;;18.75;100.00;99634.13;5012525;28;1077;-58
2023/08/25 03:45:22;;;;;;;;;;;;;;;18.75;100.00;99625.72;5012537;28;1339;-58
2023/08/25 03:47:49;;;;;;;;;;;;;;;18.82;100.00;99629.47;5012951;28;856;-57
2023/08/25 03:50:16;;;;;;;;;;;;;;;18.89;100.00;99632.75;4995334;28;1170;-58
2023/08/25 03:52:44;;;;;;;;;;;;;;;18.99;100.00;99622.34;5012816;28;813;-58
2023/08/25 03:55:11;;;;;;;;;;;;;;;19.09;100.00;99628.72;5012851;28;875;-58
2023/08/25 03:57:38;;;;;;;;;;;;;;;19.15;100.00;99630.44;5012661;28;880;-58
2023/08/25 04:00:05;;;;;;;;;;;;;;;19.23;100.00;99636.53;5012756;28;1960;-58
2023/08/25 04:02:31;;;;;;;;;;;;;;;19.29;100.00;99623.47;5012712;28;821;-58
2023/08/25 04:04:58;;;;;;;;;;;;;;;19.35;100.00;99632.81;5012663;28;876;-58
2023/08/25 04:07:25;;;;;;;;;;;;;;;19.44;100.00;99639.63;5012551;28;828;-58
2023/08/25 04:09:54;;;;;;;;;;;;;;;19.52;100.00;99633.28;5012831;28;844;-58
2023/08/25 04:12:21;;;;;;;;;;;;;;;19.63;100.00;99638.41;5012574;28;892;-58
2023/08/25 04:14:48;;;;;;;;;;;;;;;19.75;100.00;99640.25;5012503;28;871;-58
2023/08/25 04:17:14;;;;;;;;;;;;;;;19.88;100.00;99642.88;5012403;28;860;-58
2023/08/25 04:19:41;;;;;;;;;;;;;;;20.00;100.00;99643.97;5012445;28;821;-58
2023/08/25 04:22:08;;;;;;;;;;;;;;;20.11;100.00;99635.03;5012256;28;1886;-58
2023/08/25 04:24:34;;;;;;;;;;;;;;;20.22;100.00;99635.31;5012337;28;825;-58
2023/08/25 04:27:01;;;;;;;;;;;;;;;20.35;100.00;99641.50;5012276;28;812;-57
2023/08/25 04:29:27;;;;;;;;;;;;;;;20.48;100.00;99632.09;5012181;28;829;-57
2023/08/25 04:31:54;;;;;;;;;;;;;;;20.61;100.00;99646.72;5012264;28;880;-57
2023/08/25 04:34:21;;;;;;;;;;;;;;;20.74;100.00;99646.47;5012151;28;824;-57
2023/08/25 04:36:47;;;;;;;;;;;;;;;20.86;100.00;99645.47;5012245;28;821;-58
2023/08/25 04:39:13;;;;;;;;;;;;;;;21.01;100.00;99639.94;5012116;28;884;-58
2023/08/25 04:41:41;;;;;;;;;;;;;;;21.14;100.00;99648.88;5012041;28;1942;-58
2023/08/25 04:44:08;;;;;;;;;;;;;;;21.30;100.00;99650.50;5011740;28;1195;-58
2023/08/25 04:46:35;;;;;;;;;;;;;;;21.49;100.00;99653.97;5012318;28;868;-57
2023/08/25 04:49:02;;;;;;;;;;;;;;;21.66;100.00;99651.47;5012090;28;875;-58
2023/08/25 04:51:29;;;;;;;;;;;;;;;21.78;100.00;99653.22;5012005;28;824;-57
2023/08/25 04:53:56;;;;;;;;;;;;;;;21.90;100.00;99664.69;5011959;28;876;-58
2023/08/25 04:56:23;;;;;;;;;;;;;;;22.09;100.00;99670.91;5018218;28;829;-57
2023/08/25 04:58:50;;;;;;;;;;;;;;;22.32;100.00;99677.69;5018532;28;832;-58
2023/08/25 05:01:17;;;;;;;;;;;;;;;22.71;100.00;99669.88;5018347;28;1970;-57
2023/08/25 05:03:44;;;;;;;;;;;;;;;23.36;100.00;99681.00;5018480;28;813;-57
2023/08/25 05:06:11;;;;;;;;;;;;;;;23.87;100.00;99675.19;5018501;28;880;-57
2023/08/25 05:08:37;;;;;;;;;;;;;;;24.11;100.00;99672.06;5018393;28;797;-57
2023/08/25 05:11:04;;;;;;;;;;;;;;;24.14;100.00;99679.56;5018390;28;836;-57
2023/08/25 05:13:31;;;;;;;;;;;;;;;23.98;100.00;99683.75;5018606;28;888;-58
2023/08/25 05:15:57;;;;;;;;;;;;;;;23.87;100.00;99683.66;5017176;28;1209;-57
2023/08/25 05:18:24;;;;;;;;;;;;;;;24.00;100.00;99686.84;5018238;28;956;-57
2023/08/25 05:20:57;;;;;;;;;;;;;;;24.13;100.00;99678.78;5018280;28;1890;-57
2023/08/25 05:23:23;;;;;;;;;;;;;;;24.17;100.00;99684.94;5018294;28;870;-57
2023/08/25 05:25:50;;;;;;;;;;;;;;;24.30;100.00;99681.72;5018421;28;811;-57
2023/08/25 05:28:17;;;;;;;;;;;;;;;24.44;100.00;99680.06;5018305;28;852;-57
2023/08/25 05:30:50;;;;;;;;;;;;;;;24.66;100.00;99682.28;5018227;28;896;-57
2023/08/25 05:33:17;;;;;;;;;;;;;;;24.86;100.00;99672.91;5018252;28;933;-57
2023/08/25 05:35:44;;;;;;;;;;;;;;;25.02;100.00;99683.53;5018164;28;860;-58
2023/08/25 05:38:11;;;;;;;;;;;;;;;25.12;100.00;99689.00;5018146;28;883;-57
2023/08/25 05:40:38;;;;;;;;;;;;;;;25.25;100.00;99695.00;5017992;28;1918;-57
2023/08/25 05:43:04;;;;;;;;;;;;;;;25.43;100.00;99690.94;5018245;28;921;-57
2023/08/25 05:45:31;;;;;;;;;;;;;;;25.69;100.00;99690.78;5017891;28;1400;-57
2023/08/25 05:47:58;;;;;;;;;;;;;;;25.86;100.00;99702.91;5018012;28;903;-57
2023/08/25 05:50:24;;;;;;;;;;;;;;;26.04;100.00;99692.41;5018041;28;881;-57
2023/08/25 05:52:53;;;;;;;;;;;;;;;26.18;100.00;99687.78;5000366;28;1364;-57
2023/08/25 05:55:20;;;;;;;;;;;;;;;26.45;100.00;99695.50;5016563;28;1414;-57
2023/08/25 05:57:47;;;;;;;;;;;;;;;26.64;100.00;99692.19;5018268;28;864;-57
2023/08/25 06:00:13;;;;;;;;;;;;;;;26.66;100.00;99692.44;5017783;28;1906;-57
2023/08/25 06:02:40;;;;;;;;;;;;;;;26.78;100.00;99693.97;5018186;28;848;-57
2023/08/25 06:05:06;;;;;;;;;;;;;;;26.97;100.00;99697.03;5017826;28;840;-57
2023/08/25 06:07:32;;;;;;;;;;;;;;;27.11;100.00;99705.75;5014236;28;845;-57
2023/08/25 06:09:59;;;;;;;;;;;;;;;27.42;100.00;99702.59;5014670;28;914;-57
2023/08/25 06:12:26;;;;;;;;;;;;;;;27.87;100.00;99696.69;5014884;28;824;-57
2023/08/25 06:14:53;;;;;;;;;;;;;;;28.24;100.00;99689.72;5014644;28;837;-57
2023/08/25 06:17:20;;;;;;;;;;;;;;;28.39;100.00;99692.16;5014712;28;875;-57
2023/08/25 06:19:47;;;;;;;;;;;;;;;28.81;100.00;99692.09;5014619;28;828;-57
2023/08/25 06:22:14;;;;;;;;;;;;;;;29.27;100.00;99693.13;5014481;28;1890;-56
2023/08/25 06:24:41;;;;;;;;;;;;;;;29.78;97.61;99695.34;5014447;28;809;-57
2023/08/25 06:27:08;;;;;;;;;;;;;;;30.36;93.91;99697.59;5014499;28;864;-56
2023/08/25 06:29:35;;;;;;;;;;;;;;;31.10;86.32;99697.06;5014364;28;853;-56
2023/08/25 06:32:03;;;;;;;;;;;;;;;31.57;82.14;99702.09;5014309;28;908;-56
2023/08/25 06:34:30;;;;;;;;;;;;;;;32.10;77.90;99713.38;5014599;28;862;-56
2023/08/25 06:36:57;;;;;;;;;;;;;;;32.66;70.29;99705.50;5014276;28;805;-57
2023/08/25 06:39:22;;;;;;;;;;;;;;;33.19;66.52;99718.69;5014215;28;868;-56
2023/08/25 06:41:48;;;;;;;;;;;;;;;33.22;63.01;99716.78;4996587;28;1890;-56
2023/08/25 06:44:15;;;;;;;;;;;;;;;32.73;62.21;99721.19;5014151;28;1360;-56
2023/08/25 06:46:45;;;;;;;;;;;;;;;32.32;62.38;99711.31;5014304;28;888;-56
2023/08/25 06:49:13;;;;;;;;;;;;;;;31.73;62.96;99720.19;5014103;28;825;-57
2023/08/25 06:54:59;;;;;;;;;;;;;;;31.14;66.48;99721.09;5013339;28;951;-57
2023/08/25 06:57:26;;;;;;;;;;;;;;;31.18;67.23;99722.88;5029259;28;845;-56
2023/08/25 06:59:52;;;;;;;;;;;;;;;31.16;68.41;99720.56;5033766;28;915;-57
2023/08/25 07:02:19;;;;;;;;;;;;;;;30.96;69.55;99713.44;5033528;28;1910;-56
2023/08/25 07:04:46;;;;;;;;;;;;;;;30.90;69.70;99718.47;5033551;28;880;-57
2023/08/25 07:07:13;;;;;;;;;;;;;;;30.98;69.37;99712.84;5015702;28;1358;-56
2023/08/25 07:09:40;;;;;;;;;;;;;;;31.40;68.07;99710.22;5033488;28;867;-57
2023/08/25 07:12:06;;;;;;;;;;;;;;;31.97;67.34;99718.38;5033413;28;867;-57
2023/08/25 07:14:35;;;;;;;;;;;;;;;32.67;64.77;99714.88;5033537;28;875;-57
2023/08/25 07:17:02;;;;;;;;;;;;;;;33.24;62.94;99714.13;5033201;28;1027;-57
2023/08/25 07:19:29;;;;;;;;;;;;;;;34.00;60.59;99721.53;5033087;28;832;-57
2023/08/25 07:21:55;;;;;;;;;;;;;;;34.80;58.25;99720.50;5033108;28;1902;-57
2023/08/25 07:24:22;;;;;;;;;;;;;;;35.22;55.81;99720.84;5033108;28;844;-57
2023/08/25 07:26:49;;;;;;;;;;;;;;;35.29;52.99;99713.53;5033165;28;828;-58
2023/08/25 07:29:15;;;;;;;;;;;;;;;34.83;52.40;99717.25;5015253;28;1220;-58
2023/08/25 07:31:42;;;;;;;;;;;;;;;35.14;52.10;99712.25;5033389;28;816;-57
2023/08/25 07:34:09;;;;;;;;;;;;;;;35.44;50.41;99706.97;5032970;28;907;-58
2023/08/25 07:36:35;;;;;;;;;;;;;;;35.54;49.76;99707.91;5015262;28;1270;-58
2023/08/25 07:39:02;;;;;;;;;;;;;;;35.63;49.13;99712.25;5032872;28;824;-58
2023/08/25 07:41:28;;;;;;;;;;;;;;;35.80;48.50;99705.88;5032706;28;1957;-58
2023/08/25 07:43:56;;;;;;;;;;;;;;;35.63;48.59;99720.88;5032533;28;1126;-59
2023/08/25 07:46:22;;;;;;;;;;;;;;;35.27;48.54;99717.00;5032716;28;981;-58
2023/08/25 07:48:50;;;;;;;;;;;;;;;35.22;48.08;99714.34;5032722;28;812;-58
2023/08/25 07:51:17;;;;;;;;;;;;;;;35.65;47.68;99712.47;5032602;28;818;-58
2023/08/25 07:53:43;;;;;;;;;;;;;;;35.95;46.01;99709.47;5032501;28;910;-58
2023/08/25 07:56:11;;;;;;;;;;;;;;;35.82;46.70;99703.94;5032591;28;914;-58
2023/08/25 07:58:37;;;;;;;;;;;;;;;35.63;46.56;99698.66;5032760;28;797;-58
2023/08/25 08:01:03;;;;;;;;;;;;;;;35.18;47.67;99708.97;5032485;28;1981;-58
2023/08/25 08:03:31;;;;;;;;;;;;;;;35.16;47.84;99703.81;5032492;28;839;-58
2023/08/25 08:05:58;;;;;;;;;;;;;;;35.30;47.13;99703.59;5032418;28;876;-58
2023/08/25 08:08:25;;;;;;;;;;;;;;;35.20;47.09;99702.66;5032280;28;935;-58
2023/08/25 08:10:51;;;;;;;;;;;;;;;35.48;46.65;99704.47;5032616;28;852;-58
2023/08/25 08:13:19;;;;;;;;;;;;;;;35.78;44.40;99709.34;5014492;28;2348;-58
2023/08/25 08:15:46;;;;;;;;;;;;;;;35.75;43.52;99705.53;5032222;28;804;-58
2023/08/25 08:18:13;;;;;;;;;;;;;;;35.78;42.97;99704.38;5032244;28;887;-58
2023/08/25 08:20:39;;;;;;;;;;;;;;;36.08;42.02;99699.00;5032242;28;1890;-58
2023/08/25 08:23:06;;;;;;;;;;;;;;;35.96;41.61;99698.72;5032027;28;880;-58
2023/08/25 08:25:36;;;;;;;;;;;;;;;36.03;41.71;99692.13;5032032;28;863;-58
2023/08/25 08:28:03;;;;;;;;;;;;;;;36.42;41.26;99691.88;5032223;28;1329;-58
2023/08/25 08:30:29;;;;;;;;;;;;;;;36.68;39.48;99688.44;5031256;28;912;-58
2023/08/25 08:32:56;;;;;;;;;;;;;;;36.59;38.38;99689.03;5032075;28;848;-58
2023/08/25 08:35:23;;;;;;;;;;;;;;;36.58;37.88;99690.41;5031894;28;896;-58
2023/08/25 08:37:50;;;;;;;;;;;;;;;36.47;37.88;99688.78;5032172;28;932;-59
2023/08/25 08:40:16;;;;;;;;;;;;;;;36.62;38.00;99681.38;5031793;28;1882;-59
2023/08/25 08:42:45;;;;;;;;;;;;;;;36.67;37.11;99686.13;5031906;28;963;-58
2023/08/25 08:45:11;;;;;;;;;;;;;;;36.69;36.60;99686.31;5031396;28;1282;-58
2023/08/25 08:47:38;;;;;;;;;;;;;;;36.76;36.13;99680.47;5031889;28;840;-58
2023/08/25 08:50:06;;;;;;;;;;;;;;;37.06;35.85;99675.75;5031675;28;817;-58
2023/08/25 08:52:33;;;;;;;;;;;;;;;37.34;34.71;99680.25;5031752;28;915;-58
2023/08/25 08:55:00;;;;;;;;;;;;;;;37.40;35.19;99665.56;5031737;28;832;-58
2023/08/25 08:57:28;;;;;;;;;;;;;;;37.58;34.01;99672.88;5031654;28;851;-58
2023/08/25 08:59:59;;;;;;;;;;;;;;;37.35;34.54;99672.38;5031698;28;903;-58
2023/08/25 09:02:31;;;;;;;;;;;;;;;36.94;34.05;99672.63;5031618;28;1980;-57
2023/08/25 09:04:58;;;;;;;;;;;;;;;36.82;35.22;99667.94;5031597;28;902;-58
2023/08/25 09:07:26;;;;;;;;;;;;;;;36.74;34.29;99668.00;5031591;28;926;-58
2023/08/25 09:09:53;;;;;;;;;;;;;;;36.66;34.71;99665.22;5031623;28;911;-58
2023/08/25 09:12:19;;;;;;;;;;;;;;;36.73;34.84;99666.50;5031627;28;839;-58
2023/08/25 09:14:47;;;;;;;;;;;;;;;37.21;34.55;99669.06;5031533;28;930;-58
2023/08/25 09:17:14;;;;;;;;;;;;;;;37.07;34.41;99673.63;5031389;28;853;-58
2023/08/25 09:19:41;;;;;;;;;;;;;;;36.90;34.59;99671.53;5031533;28;871;-58
2023/08/25 09:22:13;;;;;;;;;;;;;;;36.77;34.50;99664.72;5031270;28;1897;-58
2023/08/25 09:24:42;;;;;;;;;;;;;;;36.70;34.69;99665.56;5031822;28;840;-58
2023/08/25 09:27:23;;;;;;;;;;;;;;;36.85;34.15;99663.88;5031414;28;915;-58
2023/08/25 09:30:03;;;;;;;;;;;;;;;36.54;34.97;99669.91;5031435;28;879;-58
2023/08/25 09:32:30;;;;;;;;;;;;;;;36.54;34.72;99679.31;5031595;28;864;-58
2023/08/25 09:35:09;;;;;;;;;;;;;;;36.30;35.00;99671.47;5031370;28;899;-58
2023/08/25 09:37:41;;;;;;;;;;;;;;;36.25;35.49;99670.34;5031366;28;1314;-59
2023/08/25 09:40:11;;;;;;;;;;;;;;;35.86;35.73;99664.06;5031252;28;871;-58
2023/08/25 09:42:38;;;;;;;;;;;;;;;35.83;36.14;99662.38;5033493;28;1157;-58
2023/08/25 09:45:05;;;;;;;;;;;;;;;35.85;36.21;99656.81;5013689;28;1342;-58
2023/08/25 09:47:32;;;;;;;;;;;;;;;36.13;35.44;99657.78;5015378;28;828;-58
2023/08/25 09:49:58;;;;;;;;;;;;;;;36.06;35.80;99653.59;5015116;28;864;-58
2023/08/25 09:52:29;;;;;;;;;;;;;;;35.88;35.38;99649.88;5015294;28;859;-58
2023/08/25 09:54:56;;;;;;;;;;;;;;;35.93;35.45;99646.00;5015002;28;863;-58
2023/08/25 09:57:23;;;;;;;;;;;;;;;36.13;34.85;99643.41;5013824;28;1466;-58
2023/08/25 09:59:50;;;;;;;;;;;;;;;36.12;35.17;99642.59;5015113;28;902;-58
2023/08/25 10:02:18;;;;;;;;;;;;;;;36.62;35.41;99629.56;5014865;28;1906;-58
2023/08/25 10:04:44;;;;;;;;;;;;;;;36.92;34.13;99629.25;5014930;28;930;-58
2023/08/25 10:07:12;;;;;;;;;;;;;;;36.92;33.77;99620.59;5014831;28;835;-58
2023/08/25 10:09:39;;;;;;;;;;;;;;;36.95;33.87;99618.66;5013601;28;1192;-58
2023/08/25 10:46:24;;;;;;;;;;;;;;;37.66;31.44;99576.84;5034275;28;642;-68
2023/08/25 10:49:06;;;;;;;;;;;;;;;37.83;31.09;99576.78;5033980;28;867;-70
2023/08/25 10:51:36;;;;;;;;;;;;;;;37.86;30.60;99575.59;5033863;28;862;-66
2023/08/25 10:54:03;;;;;;;;;;;;;;;37.87;30.33;99571.31;5033430;28;1195;-64
2023/08/25 10:56:30;;;;;;;;;;;;;;;37.86;30.68;99577.72;5033993;28;876;-64
2023/08/25 10:59:05;;;;;;;;;;;;;;;37.90;30.55;99575.16;5033737;28;1284;-64
2023/08/25 11:01:38;;;;;;;;;;;;;;;37.61;31.17;99560.59;5033547;28;1902;-65
2023/08/25 11:04:06;;;;;;;;;;;;;;;38.00;30.46;99561.50;5033695;28;879;-64
2023/08/25 11:06:36;;;;;;;;;;;;;;;38.30;29.67;99562.34;5033780;28;950;-65
2023/08/25 11:09:03;;;;;;;;;;;;;;;38.69;29.55;99562.44;5033578;28;824;-66
2023/08/25 11:11:34;;;;;;;;;;;;;;;38.67;29.09;99565.94;5033416;28;844;-64
2023/08/25 11:14:00;;;;;;;;;;;;;;;38.58;30.16;99564.56;5033467;28;890;-64
2023/08/25 11:16:27;;;;;;;;;;;;;;;38.54;30.52;99555.59;5033387;28;1218;-71
2023/08/25 11:18:53;;;;;;;;;;;;;;;38.45;31.03;99559.19;5033415;28;1185;-66
2023/08/25 11:21:27;;;;;;;;;;;;;;;38.47;30.76;99567.25;5033171;28;1945;-66
2023/08/25 11:23:54;;;;;;;;;;;;;;;38.05;31.04;99568.41;5033318;28;816;-64
2023/08/25 11:26:22;;;;;;;;;;;;;;;38.46;31.25;99559.97;5033217;28;899;-65
2023/08/25 11:28:53;;;;;;;;;;;;;;;38.93;30.17;99563.50;5015359;28;1408;-64
2023/08/25 11:31:23;;;;;;;;;;;;;;;39.00;29.83;99565.47;5033099;28;843;-65
2023/08/25 11:33:51;;;;;;;;;;;;;;;38.92;29.94;99553.28;5033135;28;902;-66
2023/08/25 11:36:21;;;;;;;;;;;;;;;39.03;29.69;99549.81;5015378;28;1217;-67
2023/08/25 11:38:48;;;;;;;;;;;;;;;39.31;29.62;99548.25;5032947;28;816;-65
2023/08/25 11:41:16;;;;;;;;;;;;;;;39.77;28.64;99549.31;5032834;28;1886;-65
2023/08/25 11:43:43;;;;;;;;;;;;;;;39.43;28.79;99551.25;5033093;28;1014;-63
2023/08/25 11:46:09;;;;;;;;;;;;;;;39.04;29.13;99554.22;5032842;28;930;-64
2023/08/25 11:48:37;;;;;;;;;;;;;;;39.02;29.28;99545.41;5032784;28;845;-66
2023/08/25 11:51:04;;;;;;;;;;;;;;;38.74;28.87;99550.56;5032665;28;816;-64
2023/08/25 11:53:31;;;;;;;;;;;;;;;38.56;29.16;99543.44;5032633;28;831;-65
2023/08/25 11:56:04;;;;;;;;;;;;;;;38.19;29.75;99544.25;5032502;28;868;-63
2023/08/25 11:58:34;;;;;;;;;;;;;;;38.18;29.59;99542.00;5032607;28;903;-67
2023/08/25 12:01:10;;;;;;;;;;;;;;;38.58;29.18;99540.72;5032449;28;2000;-65
2023/08/25 12:03:37;;;;;;;;;;;;;;;38.47;29.28;99553.56;5032339;28;824;-65
2023/08/25 12:06:07;;;;;;;;;;;;;;;38.53;28.54;99544.66;5031923;28;879;-66
2023/08/25 12:08:34;;;;;;;;;;;;;;;38.36;29.30;99546.25;5032483;28;809;-66
2023/08/25 12:11:01;;;;;;;;;;;;;;;38.35;29.11;99547.63;5032306;28;828;-64
2023/08/25 12:13:31;;;;;;;;;;;;;;;38.57;28.55;99548.59;5032473;28;891;-67
2023/08/25 12:15:58;;;;;;;;;;;;;;;38.35;29.16;99553.41;5032620;28;883;-65
2023/08/25 12:18:36;;;;;;;;;;;;;;;38.14;28.67;99547.47;5032403;28;939;-65
2023/08/25 12:21:04;;;;;;;;;;;;;;;38.02;28.68;99553.00;5032174;28;1874;-66
2023/08/25 12:23:40;;;;;;;;;;;;;;;38.17;29.08;99552.00;5032268;28;878;-65
2023/08/25 12:26:09;;;;;;;;;;;;;;;38.20;28.48;99557.34;5032220;28;872;-65
2023/08/25 12:28:36;;;;;;;;;;;;;;;38.40;28.48;99551.59;5032318;28;891;-65
2023/08/25 12:31:03;;;;;;;;;;;;;;;38.33;28.25;99550.38;5032411;28;852;-70
2023/08/25 12:33:30;;;;;;;;;;;;;;;38.22;28.74;99547.31;5032069;28;891;-66
2023/08/25 12:35:59;;;;;;;;;;;;;;;38.59;28.62;99540.09;5031909;28;878;-69
2023/08/25 12:38:26;;;;;;;;;;;;;;;38.74;27.97;99539.03;5032247;28;812;-66
2023/08/25 12:40:53;;;;;;;;;;;;;;;39.23;27.43;99538.22;5031824;28;1882;-65
2023/08/25 12:43:20;;;;;;;;;;;;;;;39.79;27.13;99526.31;5032045;28;1024;-65
2023/08/25 12:45:47;;;;;;;;;;;;;;;40.25;26.31;99527.31;5031657;28;1288;-69
2023/08/25 12:48:14;;;;;;;;;;;;;;;40.32;25.81;99535.03;5031835;28;846;-66
2023/08/25 12:50:41;;;;;;;;;;;;;;;39.67;26.42;99534.91;5031755;28;882;-66
2023/08/25 12:53:07;;;;;;;;;;;;;;;39.54;26.26;99532.50;5032099;28;915;-67
2023/08/25 12:55:33;;;;;;;;;;;;;;;39.20;26.64;99535.19;5032001;28;824;-66
2023/08/25 13:01:04;;;;;;;;;;;;;;;38.94;27.41;99528.22;5031645;28;1977;-64
2023/08/25 13:03:31;;;;;;;;;;;;;;;39.51;27.13;99533.75;5031643;28;859;-65
2023/08/25 13:05:57;;;;;;;;;;;;;;;39.65;26.34;99528.97;5013948;28;1299;-66
2023/08/25 13:08:24;;;;;;;;;;;;;;;39.60;26.43;99530.84;5031814;28;859;-66
2023/08/25 13:10:51;;;;;;;;;;;;;;;39.13;26.86;99520.91;5031744;28;835;-64
2023/08/25 13:13:18;;;;;;;;;;;;;;;38.67;27.65;99530.53;5031608;28;808;-65
2023/08/25 13:15:44;;;;;;;;;;;;;;;39.00;27.33;99531.56;5032401;28;824;-65
2023/08/25 13:18:11;;;;;;;;;;;;;;;39.17;26.91;99521.19;5035590;28;899;-66
2023/08/25 13:20:37;;;;;;;;;;;;;;;38.98;26.90;99527.78;5035514;28;1886;-68
2023/08/25 13:23:03;;;;;;;;;;;;;;;38.68;27.70;99529.91;5035399;28;864;-68
2023/08/25 13:25:31;;;;;;;;;;;;;;;38.36;28.29;99528.94;5035487;28;939;-67
2023/08/25 13:27:57;;;;;;;;;;;;;;;38.01;27.90;99531.31;5035471;28;887;-66
2023/08/25 13:30:24;;;;;;;;;;;;;;;37.47;28.81;99522.72;5035464;28;887;-71
2023/08/25 13:32:50;;;;;;;;;;;;;;;37.33;29.33;99522.38;5035248;28;875;-65
2023/08/25 13:35:17;;;;;;;;;;;;;;;37.29;29.32;99519.16;5035357;28;828;-69
2023/08/25 13:37:44;;;;;;;;;;;;;;;37.28;29.33;99501.13;5035185;28;872;-69
2023/08/25 13:40:11;;;;;;;;;;;;;;;37.44;29.00;99512.41;5035040;28;894;-69
2023/08/25 13:42:37;;;;;;;;;;;;;;;37.17;29.02;99516.84;5035056;28;1952;-64